Terminal Aerodrome Forecast
Issued by NWS

Home | Current Version | Previous Version | Text Only | Print | Product List | Glossary On
Versions: 1 2 3 4 5 6 7 8 9 10 11 12 13 14 15 16 17 18 19 20 21 22 23 24 25
000
FTUS43 KDVN 291719 AAD
TAFBRL
TAF AMD
KBRL 291719Z 2917/3012 22010KT P6SM VCSH BKN015
     FM292000 23011KT P6SM VCTS BKN040CB
     FM300300 25006KT 4SM -TSRA BR BKN030CB
     FM300800 26007KT 3SM -SHRA BR BKN012=

USA.gov is the U.S. government's official web portal to all federal, state and local government web resources and services.